Date,TemperatureHighF,TemperatureAvgF,TemperatureLowF,DewpointHighF,DewpointAvgF,DewpointLowF,HumidityHigh,HumidityAvg,HumidityLow,PressureMaxIn,PressureMinIn,WindSpeedMaxMPH,WindSpeedAvgMPH,GustSpeedMaxMPH,PrecipitationSumIn
2013-1-1,76,60,46,60,52,44,97,78,51,30.15,29.93,6,0,11,0.00
2013-1-2,75,65,59,66,60,55,92,84,71,30.00,29.89,6,0,8,0.02
2013-1-3,62,57,50,60,55,47,95,92,86,30.17,29.98,4,0,6,0.13
2013-1-4,58,52,48,51,48,44,94,87,79,30.25,30.15,5,0,7,0.00
2013-1-5,66,53,40,52,46,38,92,80,60,30.27,30.17,3,0,8,0.00
2013-1-6,63,57,52,55,53,50,95,87,74,30.18,30.04,1,0,5,0.83
2013-1-7,64,55,47,53,49,42,95,81,66,30.21,30.11,4,0,11,0.00
2013-1-8,72,62,58,65,58,53,94,86,75,30.20,30.12,4,0,9,0.00
2013-1-9,76,67,62,71,64,60,99,92,79,30.26,30.16,4,0,8,0.00
2013-1-10,77,69,62,70,65,60,99,88,67,30.28,30.20,5,0,10,0.09
2013-1-11,83,68,58,69,62,56,98,81,46,30.20,30.09,3,0,11,0.00
2013-1-12,83,68,58,69,61,56,97,82,46,30.13,30.02,5,0,5,0.01
2013-1-13,81,67,56,68,60,55,97,81,49,30.10,29.99,2,0,6,0.00
2013-1-14,82,68,58,67,60,56,97,79,46,30.12,30.03,3,0,12,0.00
2013-1-15,82,69,59,68,62,56,96,79,49,30.09,29.97,3,0,10,0.00
2013-1-16,82,71,63,66,62,58,94,75,47,30.01,29.90,4,0,10,0.00
2013-1-17,75,59,44,64,52,33,96,78,56,30.07,29.83,12,1,18,0.00
2013-1-18,59,51,42,45,40,33,80,68,58,30.32,30.07,10,1,17,0.00
2013-1-19,62,56,48,54,50,42,90,81,73,30.29,30.12,8,1,11,0.00
2013-1-20,74,61,51,54,50,47,94,72,40,30.14,29.99,4,0,8,0.00
2013-1-21,70,57,48,54,47,41,95,71,44,30.06,29.95,5,0,7,0.00
2013-1-22,64,53,42,41,32,26,66,48,27,30.23,30.02,5,0,9,0.00
2013-1-23,64,48,34,38,32,27,84,58,29,30.34,30.20,3,0,6,0.00
2013-1-24,74,57,42,52,46,38,89,68,41,30.23,30.11,5,0,11,0.00
2013-1-25,75,62,54,56,50,43,90,70,35,30.25,30.09,6,0,8,0.00
2013-1-26,76,63,54,59,55,49,94,76,55,30.16,30.07,3,0,10,0.00
2013-1-27,69,62,58,58,55,53,91,79,64,30.30,30.14,8,0,12,0.00
2013-1-28,77,66,55,62,59,53,95,80,56,30.29,30.18,6,0,9,0.00
2013-1-29,79,67,57,67,62,55,96,83,61,30.20,30.02,6,0,10,0.00
2013-1-30,85,74,63,66,63,57,92,71,47,30.03,29.71,11,1,18,0.11
2013-1-31,61,53,43,56,36,26,88,56,27,30.18,29.82,9,1,17,0.07
2013-2-1,66,53,43,36,32,23,63,47,27,30.25,30.16,5,0,12,0.00
2013-2-2,68,50,36,39,31,24,84,52,23,30.28,30.09,4,0,8,0.00
2013-2-3,69,52,39,42,35,26,88,56,21,30.12,29.96,8,0,10,0.00
2013-2-4,67,54,40,44,40,34,90,62,30,30.06,29.98,3,0,6,0.00
2013-2-5,71,57,44,51,44,39,92,65,39,30.03,29.92,3,0,7,0.00
2013-2-6,70,62,57,58,55,51,86,76,63,30.08,29.97,3,0,6,0.00
2013-2-7,79,68,61,64,61,57,93,80,53,30.03,29.73,5,0,12,0.03
2013-2-8,72,62,56,64,55,52,88,77,55,30.02,29.76,5,0,13,0.00
2013-2-9,66,56,49,52,46,40,88,71,45,30.18,30.01,7,0,12,0.00
2013-2-10,73,62,48,58,52,45,95,73,50,30.23,30.10,9,1,15,0.00
2013-2-11,82,71,62,63,60,57,88,69,48,30.12,29.98,6,0,16,0.00
2013-2-12,82,71,64,67,64,60,95,78,53,30.01,29.80,10,1,12,0.00
2013-2-13,75,71,65,71,64,48,93,80,51,29.85,29.72,7,1,15,0.41
2013-2-14,64,54,48,54,48,44,88,81,62,30.01,29.84,6,0,8,0.08
2013-2-15,68,52,42,48,43,39,92,73,39,30.03,29.90,3,0,8,0.00
2013-2-16,58,48,41,48,41,22,94,76,46,30.07,29.84,12,1,16,0.02
2013-2-17,54,42,33,24,17,9,67,39,17,30.29,30.06,7,0,13,0.00
2013-2-18,62,45,26,41,32,22,90,64,34,30.34,30.16,5,0,10,0.00
2013-2-19,78,60,42,60,50,38,95,71,39,30.16,29.93,12,1,19,0.04
2013-2-20,69,56,47,57,39,23,88,56,27,30.11,29.99,5,0,8,0.00
2013-2-21,71,57,42,56,46,39,92,69,44,30.08,29.97,6,0,9,0.00
2013-2-22,85,72,61,68,64,56,95,78,45,30.01,29.91,6,0,14,0.00
2013-2-23,83,73,63,67,64,60,93,76,49,29.91,29.77,14,1,17,0.39
2013-2-24,75,65,57,64,56,40,97,78,31,29.93,29.78,3,0,10,0.17
2013-2-25,67,63,58,67,61,54,97,93,86,29.87,29.73,7,1,18,2.33
2013-2-26,80,69,61,70,62,52,98,81,39,29.75,29.59,8,1,19,0.51
2013-2-27,71,61,54,54,46,41,79,61,34,29.90,29.75,5,0,14,0.00
2013-2-28,72,60,48,47,41,32,84,54,31,29.90,29.77,7,0,14,0.00
2013-3-1,63,54,48,37,35,33,60,50,36,29.93,29.82,5,0,16,0.00
2013-3-2,58,47,38,38,32,27,84,57,34,29.95,29.84,13,1,18,0.00
2013-3-3,47,42,37,33,28,26,77,59,45,30.06,29.92,6,0,15,0.00
2013-3-4,65,49,36,39,29,18,74,51,24,30.15,30.04,5,0,11,0.00
2013-3-5,76,59,40,56,44,35,88,61,25,30.11,29.82,10,1,19,0.00
2013-3-6,65,53,45,59,34,26,84,51,27,30.06,29.79,11,1,19,0.01
2013-3-7,66,50,37,42,34,29,83,58,30,30.17,30.06,4,0,14,0.00
2013-3-8,72,52,37,49,41,35,94,71,29,30.16,30.08,4,0,14,0.00
2013-3-9,69,54,40,52,44,38,96,72,40,30.20,30.10,5,0,11,0.00
2013-3-10,74,61,47,59,51,44,95,72,45,30.15,30.06,7,1,13,0.00
2013-3-11,77,65,51,61,55,49,94,71,46,30.07,29.82,4,0,9,0.00
2013-3-12,69,65,55,68,58,46,95,80,54,29.94,29.76,6,0,10,0.09
2013-3-13,72,60,50,46,36,30,74,45,21,30.11,29.94,6,0,12,0.00
2013-3-14,64,52,41,36,29,24,75,43,25,30.23,30.09,10,0,10,0.00
2013-3-15,75,53,36,43,36,28,94,58,24,30.21,30.04,3,0,7,0.00
2013-3-16,82,64,50,51,46,40,87,56,27,30.09,29.92,9,0,11,0.00
2013-3-17,78,64,48,55,46,40,86,56,27,30.05,29.90,6,0,12,0.00
2013-3-18,82,69,60,63,59,55,92,72,46,29.98,29.78,5,0,11,0.01
2013-3-19,82,70,61,63,59,55,92,70,45,29.95,29.82,4,0,10,0.13
2013-3-20,67,60,51,59,52,47,92,76,59,29.94,29.76,9,0,12,0.30
2013-3-21,70,55,45,49,35,24,93,53,18,29.89,29.78,10,0,10,0.00
2013-3-22,67,56,45,48,39,31,77,57,33,29.98,29.86,5,0,10,0.00
2013-3-23,68,60,52,65,58,47,98,91,77,29.93,29.71,3,0,11,2.72
2013-3-24,85,71,62,73,66,61,100,85,46,29.73,29.45,8,1,21,0.26
2013-3-25,68,60,52,61,37,24,83,46,20,29.95,29.55,11,1,17,0.00
2013-3-26,58,49,41,29,26,22,54,42,27,30.18,29.96,6,0,17,0.00
2013-3-27,62,49,38,36,29,26,75,48,27,30.24,30.13,7,0,8,0.00
2013-3-28,71,52,36,41,35,27,92,58,20,30.23,30.13,5,0,11,0.00
2013-3-29,75,55,40,51,40,31,95,63,22,30.26,30.12,5,0,10,0.00
2013-3-30,79,61,43,53,44,37,93,59,24,30.20,30.03,8,0,13,0.00
2013-3-31,84,67,52,56,50,43,85,57,33,30.06,29.89,8,1,16,0.00
2013-4-1,82,70,62,68,62,56,88,76,49,29.92,29.81,6,0,10,0.20
2013-4-2,78,66,54,60,50,42,94,62,28,30.04,29.90,7,0,11,0.01
2013-4-3,79,64,52,64,57,50,97,82,48,30.02,29.95,8,0,10,0.27
2013-4-4,78,70,65,71,65,63,98,84,65,29.98,29.78,6,1,16,0.31
2013-4-5,68,60,54,63,57,50,94,89,83,29.95,29.73,3,0,8,0.17
2013-4-6,70,60,49,55,52,46,93,76,53,30.10,29.95,7,0,13,0.00
2013-4-7,76,67,57,64,56,52,95,72,49,30.12,30.03,9,0,11,0.00
2013-4-8,84,68,54,65,58,51,96,72,42,30.09,30.01,6,0,9,0.00
2013-4-9,83,70,58,69,61,56,96,74,46,30.12,30.02,7,0,10,0.00
2013-4-10,81,70,55,66,61,53,95,75,54,30.08,29.93,5,0,10,0.00
2013-4-11,89,75,69,72,68,66,96,82,49,29.93,29.73,6,0,13,0.19
2013-4-12,87,77,72,73,69,64,96,76,50,29.80,29.68,8,1,20,0.00
2013-4-13,84,72,60,67,54,45,85,56,28,29.94,29.80,4,0,8,0.00
2013-4-14,76,65,58,66,60,54,97,87,55,29.94,29.81,9,0,12,0.98
2013-4-15,87,71,61,68,64,60,99,80,46,30.05,29.75,3,0,11,0.00
2013-4-16,82,72,65,69,65,63,96,80,57,30.11,30.02,8,1,11,0.00
2013-4-17,78,71,62,70,65,61,97,81,64,30.11,30.03,5,0,9,0.00
2013-4-18,78,70,63,71,65,62,96,86,64,30.02,29.90,1,0,7,0.00
2013-4-19,90,78,71,73,70,66,92,78,46,29.93,29.79,9,1,15,0.26
2013-4-20,70,56,51,65,53,48,93,87,74,30.12,29.91,6,0,9,0.79
2013-4-21,72,64,54,63,57,50,92,80,66,30.12,30.03,15,1,17,0.08
2013-4-22,65,62,60,64,59,54,95,88,73,30.07,29.98,7,1,15,0.12
2013-4-23,73,64,56,59,55,51,90,73,54,30.09,30.00,5,0,11,0.00
2013-4-24,86,68,52,65,57,50,97,71,30,30.09,30.01,7,0,9,0.00
2013-4-25,88,73,58,67,62,56,95,70,39,30.13,30.03,5,0,7,0.00
2013-4-26,80,71,62,66,61,56,87,73,56,30.21,30.09,7,0,15,0.00
2013-4-27,81,71,60,64,59,53,94,69,40,30.19,30.09,7,1,13,0.00
2013-4-28,81,72,65,67,63,60,93,74,50,30.10,29.93,9,1,15,0.00
2013-4-29,83,71,65,70,64,61,94,81,53,29.95,29.84,9,0,13,1.05
2013-4-30,86,71,64,71,65,63,98,83,50,29.96,29.87,7,1,16,0.01
2013-5-1,77,70,64,68,64,61,95,84,72,29.99,29.91,9,1,13,0.00
2013-5-2,70,68,67,69,67,64,98,95,85,29.96,29.82,8,1,19,3.45
2013-5-3,70,67,65,67,65,60,98,92,72,29.83,29.75,11,3,21,2.04
2013-5-4,70,68,65,69,66,60,98,93,77,29.76,29.61,10,2,17,1.84
2013-5-5,79,68,60,70,58,49,99,74,35,29.82,29.64,5,0,13,0.00
2013-5-6,75,66,56,57,49,44,82,57,34,29.91,29.78,7,0,14,0.00
2013-5-7,78,68,56,59,55,50,88,65,42,29.95,29.83,8,1,15,0.00
2013-5-8,83,71,58,64,57,54,94,65,39,30.03,29.93,4,0,9,0.00
2013-5-9,88,74,63,66,60,54,93,65,35,30.06,30.00,5,0,9,0.00
2013-5-10,90,75,61,68,62,56,95,67,33,30.06,29.92,6,0,10,0.00
2013-5-11,90,75,67,72,67,64,92,79,48,29.98,29.85,7,0,14,0.20
2013-5-12,86,76,67,70,65,55,97,72,47,29.95,29.85,6,0,11,0.00
2013-5-13,80,71,59,56,47,39,73,45,25,30.07,29.93,6,0,12,0.00
2013-5-14,83,66,49,51,46,35,88,54,20,30.17,30.07,3,0,9,0.00
2013-5-15,88,70,54,63,54,47,95,62,28,30.16,30.01,2,0,8,0.00
2013-5-16,87,74,60,66,62,57,92,68,42,30.06,29.95,5,0,8,0.00
2013-5-17,88,75,62,68,63,58,93,69,36,30.04,29.97,4,0,11,0.00
2013-5-18,88,77,66,72,68,64,95,75,48,30.06,29.95,9,0,10,0.27
2013-5-19,88,76,69,76,70,67,97,81,55,30.04,29.92,5,0,10,0.57
2013-5-20,84,75,69,75,70,67,97,84,62,30.02,29.94,3,0,7,0.20
2013-5-21,86,74,69,74,69,67,96,85,60,29.98,29.88,5,0,10,0.11
2013-5-22,83,74,66,74,69,65,97,83,64,29.93,29.84,5,0,8,0.34
2013-5-23,92,79,68,72,68,65,96,72,41,29.90,29.82,3,0,11,0.00
2013-5-24,91,80,70,70,62,50,93,60,27,30.03,29.87,6,0,10,0.00
2013-5-25,82,73,65,64,56,51,89,56,34,30.18,30.03,7,1,11,0.00
2013-5-26,86,72,57,66,54,46,95,59,26,30.16,30.09,6,0,12,0.00
2013-5-27,85,73,58,67,61,56,95,68,44,30.13,30.06,5,0,10,0.00
2013-5-28,84,75,64,68,64,60,93,71,54,30.11,30.05,6,1,13,0.00
2013-5-29,86,77,68,74,70,65,95,78,61,30.09,30.03,8,1,13,0.04
2013-5-30,86,78,72,74,71,69,95,78,59,30.10,30.02,7,1,13,0.04
2013-5-31,86,78,70,74,70,68,96,78,58,30.08,30.01,9,1,14,0.01
2013-6-1,86,78,70,73,70,67,95,77,56,30.03,29.95,8,1,13,0.14
2013-6-2,87,79,72,77,73,71,97,82,65,29.98,29.81,5,1,11,0.04
2013-6-3,94,79,73,76,73,70,96,83,48,29.88,29.78,5,0,19,0.95
2013-6-4,86,78,73,78,73,71,96,86,67,29.94,29.86,2,0,10,0.11
2013-6-5,85,76,72,73,72,70,95,87,65,29.94,29.86,7,0,10,0.83
2013-6-6,77,74,71,76,73,70,98,96,92,29.87,29.48,8,1,16,1.63
2013-6-7,89,79,71,74,71,69,96,77,55,29.84,29.50,8,1,18,0.02
2013-6-8,94,81,74,76,73,69,95,76,44,30.00,29.84,4,0,8,0.00
2013-6-9,89,79,73,78,73,70,94,84,59,30.05,29.95,5,0,10,0.64
2013-6-10,92,81,74,77,73,71,98,79,53,30.03,29.92,3,0,10,0.02
2013-6-11,92,82,74,77,73,70,92,75,52,30.01,29.91,5,0,12,0.03
2013-6-12,97,85,74,77,73,69,95,69,41,29.98,29.88,3,0,7,0.00
2013-6-13,97,86,78,77,74,69,90,70,43,29.91,29.77,5,1,13,0.00
2013-6-14,91,80,71,77,74,68,95,82,60,29.86,29.70,9,1,17,0.88
2013-6-15,88,80,73,74,68,65,96,70,50,30.02,29.86,6,1,11,0.00
2013-6-16,87,79,70,73,70,67,91,73,55,30.05,29.96,4,0,10,0.00
2013-6-17,93,83,75,77,74,70,92,76,53,30.01,29.87,3,0,13,0.00
2013-6-18,94,84,75,75,72,68,92,69,46,29.96,29.83,5,0,13,0.00
2013-6-19,95,84,76,76,72,65,91,69,38,29.96,29.84,7,0,9,0.02
2013-6-20,91,79,72,78,73,68,96,84,55,30.04,29.91,11,0,14,1.00
2013-6-21,86,78,73,76,72,70,96,83,61,30.05,29.97,5,0,9,0.06
2013-6-22,89,79,74,78,73,70,97,83,56,30.05,30.00,7,0,14,0.05
2013-6-23,90,81,72,77,72,70,96,77,52,30.08,30.01,7,0,10,0.00
2013-6-24,91,82,73,77,72,67,95,75,45,30.12,30.02,9,0,11,0.00
2013-6-25,93,82,73,77,72,68,96,76,46,30.10,29.97,5,0,8,0.01
2013-6-26,94,80,73,77,73,68,96,82,46,30.01,29.92,3,0,15,1.01
2013-6-27,95,82,72,76,73,69,93,75,47,29.95,29.80,4,0,14,0.00
2013-6-28,92,82,78,76,73,70,89,75,53,29.86,29.71,6,1,13,0.00
2013-6-29,87,81,78,76,73,71,89,78,62,29.75,29.67,6,1,12,0.01
2013-6-30,92,80,75,76,74,71,92,82,54,29.78,29.70,5,0,13,0.16
2013-7-1,85,76,72,75,72,71,97,89,70,29.95,29.75,5,0,17,1.88
2013-7-2,88,76,72,77,73,71,99,91,65,30.03,29.91,5,0,17,0.13
2013-7-3,90,79,72,79,74,71,98,85,58,30.06,30.00,5,0,12,0.53
2013-7-4,89,80,75,76,73,70,93,79,61,30.10,30.01,6,1,15,0.00
2013-7-5,89,81,73,76,73,71,94,77,59,30.09,30.02,12,1,16,0.00
2013-7-6,89,81,75,76,73,72,95,79,57,30.07,29.99,7,1,14,0.00
2013-7-7,90,82,74,77,73,70,96,76,55,30.07,30.00,5,0,11,0.00
2013-7-8,91,81,73,77,73,70,96,77,53,30.10,30.02,6,0,9,0.00
2013-7-9,91,82,74,78,72,69,96,74,49,30.10,30.00,6,0,9,0.00
2013-7-10,92,81,71,77,72,69,96,75,50,30.03,29.89,6,0,9,0.00
2013-7-11,94,81,74,76,72,70,93,76,46,29.95,29.80,3,0,12,0.00
2013-7-12,90,79,75,77,73,70,95,83,54,29.87,29.81,6,0,9,0.03
2013-7-13,89,77,71,78,72,70,96,86,60,29.93,29.82,1,0,8,0.76
2013-7-14,86,77,71,76,72,70,98,85,63,30.05,29.90,5,0,10,0.00
2013-7-15,87,78,72,77,73,70,96,86,66,30.10,30.02,9,1,17,0.10
2013-7-16,88,81,75,77,74,72,96,79,61,30.13,30.07,7,1,14,0.00
2013-7-17,89,82,75,78,73,69,96,75,52,30.13,30.02,6,1,11,0.00
2013-7-18,90,81,73,76,72,69,96,76,51,30.06,29.97,3,0,10,0.00
2013-7-19,90,79,74,74,72,70,92,79,54,30.05,29.96,7,0,13,0.03
2013-7-20,90,78,73,76,72,70,93,82,59,30.02,29.95,4,0,10,0.00
2013-7-21,93,80,73,75,73,70,93,80,53,30.02,29.94,5,0,15,0.18
2013-7-22,92,79,76,76,74,71,92,85,55,30.05,29.94,7,0,17,0.38
2013-7-23,90,79,74,77,74,72,92,85,63,29.95,29.84,5,1,16,0.76
2013-7-24,88,79,74,75,73,70,93,83,65,29.84,29.73,4,1,10,0.17
2013-7-25,92,82,74,76,73,71,91,75,51,29.88,29.75,4,0,10,0.00
2013-7-26,90,82,75,78,74,72,94,78,57,29.93,29.86,5,0,9,0.00
2013-7-27,93,81,74,79,74,70,96,82,52,29.93,29.79,3,0,14,0.33
2013-7-28,91,79,74,78,74,69,98,85,53,29.97,29.84,5,0,8,0.06
2013-7-29,96,82,72,77,72,69,96,75,45,30.07,29.95,2,0,9,0.00
2013-7-30,95,82,76,77,75,72,91,78,51,30.09,30.01,3,0,7,0.03
2013-7-31,92,79,73,79,74,71,96,86,58,30.05,29.96,5,0,10,0.79
2013-8-1,94,76,72,76,73,70,97,90,50,29.96,29.85,3,0,20,0.98
2013-8-2,92,81,72,79,74,71,99,81,53,29.96,29.86,5,0,11,0.01
2013-8-3,92,82,75,78,75,73,96,80,58,29.98,29.90,2,0,8,0.06
2013-8-4,96,86,78,78,75,70,93,73,43,29.96,29.84,4,0,8,0.00
2013-8-5,97,85,80,79,77,73,92,76,47,29.91,29.82,2,0,10,0.02
2013-8-6,92,84,78,78,76,75,94,79,59,29.92,29.82,5,0,9,0.00
2013-8-7,89,83,78,77,75,73,91,78,60,29.93,29.86,9,1,11,0.00
2013-8-8,91,83,76,79,75,73,96,79,56,29.98,29.89,5,0,11,0.00
2013-8-9,90,83,75,79,75,72,95,78,55,30.01,29.91,3,0,9,0.05
2013-8-10,93,83,75,80,75,72,96,78,51,30.06,29.98,3,0,11,0.18
2013-8-11,94,84,76,79,75,71,96,75,52,30.08,29.98,6,0,7,0.00
2013-8-12,96,85,76,78,75,73,93,73,52,30.05,29.91,3,0,7,0.32
2013-8-13,97,85,75,79,74,67,96,73,42,29.95,29.81,4,0,9,0.00
2013-8-14,97,84,72,79,74,70,96,75,44,29.92,29.78,8,0,10,2.63
2013-8-15,93,80,74,80,74,70,99,85,52,29.96,29.83,8,0,13,1.15
2013-8-16,90,78,72,78,74,71,99,89,57,29.98,29.87,6,0,9,0.09
2013-8-17,88,80,76,79,76,74,97,86,66,30.02,29.92,3,0,8,0.19
2013-8-18,91,82,75,80,76,73,98,83,60,30.04,29.96,10,1,10,0.01
2013-8-19,91,83,76,80,76,73,96,80,59,30.03,29.90,5,0,9,0.16
2013-8-20,92,83,75,79,75,71,95,77,53,30.05,29.94,5,0,11,0.00
2013-8-21,89,81,75,79,75,73,96,84,62,30.09,30.01,3,0,8,0.14
2013-8-22,81,77,73,78,74,71,97,92,82,30.09,29.95,7,0,13,0.78
2013-8-23,85,78,75,79,75,73,98,91,73,29.98,29.91,1,0,7,0.20
2013-8-24,85,79,74,78,75,73,98,88,74,30.07,29.94,4,0,7,0.01
2013-8-25,83,78,74,76,73,70,95,85,68,30.12,30.04,7,0,13,0.16
2013-8-26,87,80,73,76,72,71,96,79,60,30.11,29.99,7,0,13,0.00
2013-8-27,88,80,74,75,70,65,94,73,48,30.02,29.93,6,0,10,0.00
2013-8-28,92,80,70,75,69,65,96,71,41,29.98,29.89,3,0,8,0.00
2013-8-29,95,83,73,74,70,65,90,67,39,29.95,29.82,3,0,8,0.00
2013-8-30,96,84,77,76,73,68,90,71,41,29.89,29.78,3,0,8,0.00
2013-8-31,94,79,72,78,73,68,96,83,49,29.88,29.78,1,0,16,1.04
2013-9-1,94,81,73,79,73,70,99,81,48,29.90,29.79,5,0,12,0.51
2013-9-2,93,81,73,78,74,71,98,81,50,29.91,29.80,5,0,10,0.21
2013-9-3,92,82,75,78,74,72,97,79,51,29.91,29.82,3,0,8,0.01
2013-9-4,97,84,76,78,73,68,94,73,39,30.00,29.89,2,0,9,0.00
2013-9-5,96,83,75,76,74,69,92,74,45,30.02,29.92,2,0,7,0.00
2013-9-6,89,79,74,77,73,70,92,82,60,29.98,29.90,4,0,9,0.14
2013-9-7,89,80,72,76,70,67,96,76,50,29.95,29.87,6,0,11,0.01
2013-9-8,90,79,69,75,68,64,95,71,45,29.90,29.83,6,0,10,0.00
2013-9-9,89,79,70,75,69,65,95,73,48,29.99,29.88,7,0,12,0.00
2013-9-10,88,80,72,74,69,66,94,73,50,30.06,29.96,7,1,15,0.00
2013-9-11,88,80,72,76,72,70,95,78,56,30.04,29.96,10,0,12,0.09
2013-9-12,89,80,72,78,72,67,98,80,53,29.98,29.82,4,0,9,0.01
2013-9-13,94,82,72,75,70,65,95,71,38,29.84,29.69,5,0,7,0.00
2013-9-14,94,82,75,77,72,68,88,74,44,29.92,29.73,3,0,7,0.02
2013-9-15,91,82,74,78,73,70,95,76,54,30.02,29.90,4,0,11,0.00
2013-9-16,90,82,74,77,73,71,95,77,54,30.01,29.92,4,0,9,0.00
2013-9-17,87,79,73,78,73,71,96,81,62,30.02,29.93,6,1,14,0.10
2013-9-18,83,76,72,77,72,68,99,88,69,30.04,29.95,7,1,16,2.13
2013-9-19,84,76,72,76,71,68,96,84,64,30.01,29.95,3,0,12,0.15
2013-9-20,85,76,68,73,69,67,97,79,58,29.98,29.85,3,0,9,0.00
2013-9-21,91,78,67,75,69,65,97,75,46,29.88,29.67,3,0,8,0.00
2013-9-22,83,77,74,74,72,70,93,86,73,29.77,29.66,4,0,9,0.15
2013-9-23,83,76,73,75,73,71,96,88,74,29.88,29.75,0,0,4,0.00
2013-9-24,84,76,74,77,73,71,98,90,72,29.87,29.74,3,0,8,0.59
2013-9-25,84,78,75,75,74,72,97,87,72,29.75,29.66,4,0,10,0.01
2013-9-26,79,75,70,75,71,67,96,88,76,29.82,29.65,6,0,9,0.00
2013-9-27,80,74,67,71,68,65,93,83,69,29.92,29.80,6,0,13,0.02
2013-9-28,79,74,72,71,68,65,92,82,67,29.99,29.89,5,0,11,0.26
2013-9-29,82,75,69,72,68,65,95,80,63,29.95,29.87,5,0,14,0.31
2013-9-30,81,74,67,71,65,62,96,76,55,29.96,29.86,5,0,11,0.00
2013-10-1,82,74,68,68,64,62,87,72,54,30.02,29.94,4,0,9,0.00
2013-10-2,82,72,63,69,64,61,96,77,56,30.02,29.97,8,0,11,0.00
2013-10-3,85,76,67,74,70,65,97,82,61,30.02,29.95,7,0,11,0.00
2013-10-4,89,78,70,77,71,68,97,81,53,30.02,29.95,7,0,9,0.00
2013-10-5,86,77,69,76,71,67,97,82,65,30.00,29.92,8,0,11,0.00
2013-10-6,86,78,71,76,73,69,97,85,64,29.93,29.79,3,0,8,0.01
2013-10-7,87,77,72,76,73,70,97,88,63,29.80,29.67,5,0,7,0.27
2013-10-8,81,73,66,76,71,64,97,93,78,29.93,29.70,5,0,11,0.51
2013-10-9,72,64,61,64,62,60,97,91,73,30.02,29.92,5,0,8,0.01
2013-10-10,84,70,61,68,62,59,97,77,43,30.00,29.89,1,0,6,0.01
2013-10-11,85,72,61,68,61,59,97,73,42,29.97,29.86,4,0,7,0.00
2013-10-12,86,73,62,67,62,57,96,71,37,29.96,29.89,4,0,6,0.00
2013-10-13,86,72,62,68,63,59,97,77,41,30.02,29.93,5,0,9,0.00
2013-10-14,78,71,66,69,66,63,96,85,68,30.00,29.92,5,0,14,0.01
2013-10-15,71,69,68,70,68,66,98,94,88,29.94,29.87,6,0,10,0.27
2013-10-16,84,73,66,71,67,64,93,82,62,29.91,29.84,3,0,9,0.00
2013-10-17,89,75,64,74,67,63,97,79,48,29.90,29.81,4,0,6,0.00
2013-10-18,91,77,68,73,69,66,96,78,47,29.91,29.81,10,0,10,0.00
2013-10-19,90,78,72,75,72,69,94,82,53,29.87,29.77,1,0,13,0.16
2013-10-20,79,72,68,71,64,60,93,77,61,29.92,29.81,5,0,8,0.00
2013-10-21,82,74,69,74,70,65,95,86,73,29.95,29.86,7,0,9,0.00
2013-10-22,80,74,72,76,72,70,97,92,79,29.90,29.73,2,0,7,0.75
2013-10-23,76,68,60,70,57,45,97,72,40,29.96,29.73,5,0,12,0.07
2013-10-24,72,62,54,52,46,39,86,58,38,30.10,29.96,3,0,9,0.00
2013-10-25,74,61,51,56,49,44,96,68,43,30.19,30.09,4,0,9,0.00
2013-10-26,73,60,49,55,51,46,93,74,50,30.18,30.06,2,0,8,0.00
2013-10-27,75,60,47,56,47,40,96,68,29,30.09,30.01,5,0,6,0.00
2013-10-28,78,64,52,61,55,49,96,76,50,30.15,30.04,4,0,8,0.00
2013-10-29,78,66,57,67,59,54,97,79,54,30.20,30.12,7,0,13,0.01
2013-10-30,80,69,59,67,62,57,96,80,60,30.19,30.09,5,0,10,0.00
2013-10-31,85,74,65,71,66,61,97,79,51,30.09,29.90,3,0,9,0.00
2013-11-1,84,75,68,71,68,65,96,80,58,29.93,29.74,5,0,13,0.01
2013-11-2,76,67,57,72,63,54,97,87,61,29.89,29.70,6,0,10,0.08
2013-11-3,72,61,52,55,49,43,92,67,37,30.12,29.88,12,0,12,0.00
2013-11-4,73,64,56,64,57,49,93,78,63,30.19,30.10,13,1,19,0.02
2013-11-5,71,67,65,67,64,62,96,91,84,30.18,30.10,8,1,13,0.01
2013-11-6,78,70,64,70,67,63,99,90,68,30.11,30.01,4,0,8,0.00
2013-11-7,81,72,67,67,66,63,95,82,58,30.00,29.89,2,0,7,0.00
2013-11-8,70,60,52,63,50,43,79,69,57,30.13,29.95,7,0,16,0.00
2013-11-9,76,64,53,61,57,50,94,79,54,30.16,30.09,7,0,11,0.00
2013-11-10,76,65,58,67,60,54,98,84,58,30.15,30.05,3,0,8,0.00
2013-11-11,77,65,55,64,58,53,96,81,54,30.12,30.04,4,0,10,0.00
2013-11-12,77,68,61,64,59,46,94,75,48,30.07,29.95,4,0,16,0.00
2013-11-13,60,51,44,46,40,36,78,67,58,30.34,30.07,9,1,19,0.00
2013-11-14,66,54,43,57,49,36,91,82,69,30.31,30.15,4,0,12,0.00
2013-11-15,67,62,54,65,60,52,97,93,89,30.15,29.99,0,0,6,0.01
2013-11-16,77,68,60,68,64,59,99,87,62,30.10,30.01,4,0,9,0.00
2013-11-17,83,73,68,72,69,66,97,87,65,30.04,29.92,5,0,7,0.01
2013-11-18,80,72,68,74,70,66,97,92,76,29.95,29.82,3,0,6,0.01
2013-11-19,71,64,56,70,54,43,97,72,56,29.96,29.83,8,0,12,0.00
2013-11-20,70,65,62,64,61,56,97,87,77,30.10,29.95,5,0,13,0.01
2013-11-21,76,67,64,67,64,63,97,91,73,30.17,30.09,3,0,10,0.00
2013-11-22,79,69,63,70,64,60,99,85,60,30.17,30.06,5,0,10,0.00
2013-11-23,82,69,58,68,62,57,97,81,50,30.06,29.93,2,0,8,0.00
2013-11-24,66,57,52,60,47,40,83,68,55,30.27,30.00,10,1,15,0.00
2013-11-25,69,63,54,59,53,44,78,71,61,30.25,30.03,7,0,12,0.00
2013-11-26,76,71,66,73,67,58,97,88,74,30.03,29.62,8,0,11,0.16
2013-11-27,72,56,40,70,49,31,96,79,64,30.15,29.54,10,1,18,0.03
2013-11-28,58,44,32,43,35,26,84,72,58,30.34,30.15,5,0,11,0.00
2013-11-29,63,53,43,52,46,39,89,78,58,30.35,30.29,6,0,12,0.00
2013-11-30,61,57,54,56,53,49,91,88,80,30.32,30.16,5,0,11,0.00
2013-12-1,72,60,54,61,55,51,92,84,67,30.16,29.92,2,0,7,0.00
2013-12-2,70,59,52,56,54,49,96,84,57,29.92,29.75,3,0,6,0.00
2013-12-3,78,61,49,60,55,47,97,82,52,29.90,29.80,0,0,7,0.00
2013-12-4,81,67,56,67,62,54,97,83,57,30.02,29.88,3,0,8,0.00
2013-12-5,85,70,57,69,62,55,98,80,52,30.09,29.99,3,0,8,0.01
2013-12-6,84,72,63,71,65,61,97,81,56,30.09,30.01,7,0,11,0.00
2013-12-7,86,73,65,71,66,63,97,81,51,30.15,30.05,4,0,11,0.00
2013-12-8,73,66,63,66,64,61,97,91,78,30.18,30.06,3,0,9,0.00
2013-12-9,85,71,61,71,66,60,100,85,55,30.10,29.99,6,0,12,0.00
2013-12-10,79,68,54,70,63,42,95,84,64,30.18,29.95,5,0,12,0.04
2013-12-11,66,58,50,58,51,42,84,78,64,30.22,30.14,5,0,10,0.00
2013-12-12,66,56,44,50,38,26,80,54,22,30.30,30.16,4,0,8,0.00
2013-12-13,67,54,42,55,48,38,94,81,62,30.26,30.07,6,0,11,0.00
2013-12-14,77,66,54,68,63,51,97,89,71,30.07,29.81,8,0,15,0.00
2013-12-15,67,60,49,66,56,41,98,88,74,30.09,29.77,4,0,10,0.06
2013-12-16,60,47,38,42,39,34,87,74,48,30.18,30.08,2,0,6,0.00
2013-12-17,69,50,38,44,39,33,96,70,28,30.20,30.09,4,0,5,0.00
2013-12-18,66,53,41,43,36,23,88,58,23,30.23,30.12,6,0,9,0.00
2013-12-19,73,54,38,56,47,35,96,80,53,30.23,30.12,4,0,7,0.00
2013-12-20,79,61,47,62,55,45,98,82,54,30.15,30.06,4,0,8,0.01
2013-12-21,86,70,57,70,63,56,98,81,46,30.07,29.94,4,0,12,0.00
2013-12-22,85,75,69,71,69,67,96,82,58,30.06,29.98,10,0,17,0.01
2013-12-23,83,74,66,70,68,62,95,81,61,30.07,29.97,5,0,15,0.00
2013-12-24,65,55,44,61,42,29,88,65,32,30.23,30.04,7,0,13,0.02
2013-12-25,60,51,41,53,45,31,89,80,56,30.23,30.17,7,0,16,0.00
2013-12-26,58,54,50,52,49,46,92,82,71,30.20,30.10,5,0,9,0.00
2013-12-27,61,56,52,55,52,47,90,84,73,30.24,30.14,5,0,10,0.00
2013-12-28,71,65,59,68,61,50,95,86,74,30.21,29.91,4,0,9,0.02
2013-12-29,71,69,59,70,66,57,96,90,84,29.93,29.80,4,0,13,0.59
2013-12-30,67,57,50,56,48,44,92,76,47,30.12,29.93,3,0,8,0.00
2013-12-31,63,57,54,52,49,45,91,74,54,30.25,30.11,4,0,5,0.00
2014-1-1,60,57,53,59,54,48,98,92,80,30.23,30.00,0,0,5,0.93
2014-1-2,64,60,54,64,59,46,100,98,74,30.01,29.68,8,0,23,1.21